Flight Track Log - Related Links

Times and Time Zones

All times are in EDT time to prevent confusion due to time zone crossing. See the TAM3105 flight status page for this flight to view local times or setup timezone preferences in your user account.

Time Position Orientation Groundspeed Altitude Reporting Facility
EDT Latitude Longitude Course Direction KTS MPH feet Rate Location/Type
Tue 08:44:03 PM -23.6200 -46.6610 360° North  Level FlightAware ADS-B
Tue 08:44:56 PM -23.6300 -46.6540 149° Southeast 104 120 2,676 Level FlightAware ADS-B
Tue 08:45:17 PM -23.6450 -46.6450 151° Southeast 177 204 3,300 5,268 Climbing FlightAware ADS-B
Tue 08:45:37 PM -23.6620 -46.6500 195° South 196 226 3,600 800 Climbing FlightAware ADS-B
Tue 08:45:47 PM -23.6680 -46.6600 237° Southwest 218 251 3,700 1,200 Climbing FlightAware ADS-B
Tue 08:45:52 PM -23.6700 -46.6650 246° West 221 254 3,900 2,400 Climbing FlightAware ADS-B
Tue 08:46:07 PM -23.6720 -46.6810 262° West 222 255 4,500 2,500 Climbing FlightAware ADS-B
Tue 08:46:28 PM -23.6760 -46.7030 259° West 216 249 5,400 2,129 Climbing FlightAware ADS-B
Tue 08:46:38 PM -23.6780 -46.7140 259° West 216 249 5,600 900 Climbing FlightAware ADS-B
Tue 08:46:48 PM -23.6820 -46.7240 246° West 232 267 5,700 316 Climbing FlightAware ADS-B
Tue 08:46:57 PM -23.6880 -46.7330 234° Southwest 242 278 5,700  Level FlightAware ADS-B
Tue 08:47:07 PM -23.6960 -46.7430 229° Southwest 254 292 5,700  Level FlightAware ADS-B
Tue 08:47:33 PM -23.7170 -46.7700 230° Southwest 276 318 5,700  Level FlightAware ADS-B
Tue 08:47:52 PM -23.7340 -46.7910 229° Southwest 283 326 5,700 923 Level FlightAware ADS-B
Tue 08:48:12 PM -23.7510 -46.8140 231° Southwest 283 326 6,300 2,229 Climbing FlightAware ADS-B
Tue 08:48:27 PM -23.7640 -46.8310 230° Southwest 286 329 7,000 2,600 Climbing FlightAware ADS-B
Tue 08:48:42 PM -23.7790 -46.8450 220° Southwest 294 338 7,600 2,571 Climbing FlightAware ADS-B
Tue 08:48:48 PM -23.7860 -46.8490 208° Southwest 283 326 7,900 3,120 Climbing FlightAware ADS-B
Tue 08:49:07 PM -23.8100 -46.8590 201° Southwest 290 334 8,900 3,231 Climbing FlightAware ADS-B
Tue 08:49:27 PM -23.8360 -46.8690 199° South 291 335 10,000 2,143 Climbing FlightAware ADS-B
Tue 08:50:03 PM -23.8820 -46.8890 202° Southwest 315 362 10,900 1,500 Climbing FlightAware ADS-B
Tue 08:50:27 PM -23.9180 -46.9050 202° Southwest 343 395 11,500 2,000 Climbing FlightAware ADS-B
Tue 08:50:42 PM -23.9370 -46.9220 219° Southwest 354 407 12,200 3,120 Climbing FlightAware ADS-B
Tue 08:50:52 PM -23.9450 -46.9380 241° Southwest 348 400 12,800 3,600 Climbing FlightAware ADS-B
Tue 08:51:27 PM -23.9630 -46.9970 252° West 334 384 14,900 3,600 Climbing FlightAware ADS-B
Tue 08:51:42 PM -23.9690 -47.0190 253° West 320 368 15,800 3,000 Climbing FlightAware ADS-B
Tue 08:51:57 PM -23.9790 -47.0370 239° Southwest 304 350 16,400 2,160 Climbing FlightAware ADS-B
Tue 08:52:07 PM -23.9920 -47.0480 218° Southwest 297 342 16,700 1,429 Climbing FlightAware ADS-B
Tue 08:52:18 PM -24.0050 -47.0550 206° Southwest 291 335 16,900 933 Climbing FlightAware ADS-B
Tue 08:52:52 PM -24.0520 -47.0710 197° South 321 369 17,400 870 Climbing FlightAware ADS-B
Tue 08:53:27 PM -24.1060 -47.0910 199° South 362 417 17,900 1,200 Climbing FlightAware ADS-B
Tue 08:54:02 PM -24.1610 -47.1130 200° South 364 419 18,800 1,714 Climbing FlightAware ADS-B
Tue 08:54:37 PM -24.2190 -47.1370 201° Southwest 379 436 19,900 1,714 Climbing FlightAware ADS-B
Tue 08:55:12 PM -24.2780 -47.1600 200° South 381 438 20,800 1,600 Climbing FlightAware ADS-B
Tue 08:55:52 PM -24.3470 -47.1870 200° South 397 457 21,900 1,575 Climbing FlightAware ADS-B
Tue 08:56:32 PM -24.4170 -47.2150 200° South 407 468 22,900 1,600 Climbing FlightAware ADS-B
Tue 08:57:07 PM -24.4800 -47.2400 200° South 412 474 23,900 1,545 Climbing FlightAware ADS-B
Tue 08:57:38 PM -24.5350 -47.2610 199° South 412 474 24,600 1,455 Climbing FlightAware ADS-B
Tue 08:58:13 PM -24.6000 -47.2870 200° South 424 488 25,500 1,629 Climbing FlightAware ADS-B
Tue 08:58:48 PM -24.6650 -47.3130 200° South 427 491 26,500 1,520 Climbing FlightAware ADS-B
Tue 08:59:28 PM -24.7410 -47.3430 200° South 425 489 27,400 1,606 Climbing FlightAware ADS-B
Tue 08:59:59 PM -24.7980 -47.3660 200° South 426 490 28,400 1,909 Climbing FlightAware ADS-B
Tue 09:00:34 PM -24.8640 -47.3920 200° South 424 488 29,500 1,800 Climbing FlightAware ADS-B
Tue 09:01:09 PM -24.9290 -47.4180 200° South 412 474 30,500 1,629 Climbing FlightAware ADS-B
Tue 09:01:44 PM -24.9920 -47.4430 200° South 410 472 31,400 1,268 Climbing FlightAware ADS-B
Tue 09:02:20 PM -25.0560 -47.4690 200° South 415 478 32,000 514 Climbing FlightAware ADS-B
Tue 09:02:54 PM -25.1190 -47.4940 200° South 411 473 32,000  Level FlightAware ADS-B
Tue 09:03:30 PM -25.1820 -47.5190 200° South 413 475 32,000  Level FlightAware ADS-B
Tue 09:04:04 PM -25.2440 -47.5440 200° South 413 475 32,000  Level FlightAware ADS-B
Tue 09:04:40 PM -25.3080 -47.5700 200° South 410 472 32,000  Level FlightAware ADS-B
Tue 09:05:14 PM -25.3690 -47.5950 200° South 407 468 32,000  Level FlightAware ADS-B
Tue 09:05:49 PM -25.4330 -47.6200 199° South 407 468 32,000  Level FlightAware ADS-B
Tue 09:06:25 PM -25.4930 -47.6440 200° South 399 459 32,000  Level FlightAware ADS-B
Tue 09:07:00 PM -25.5560 -47.6700 200° South 408 470 32,000  Level FlightAware ADS-B
Tue 09:07:35 PM -25.6190 -47.6950 200° South 409 471 32,000  Level FlightAware ADS-B
Tue 09:08:11 PM -25.6830 -47.7210 200° South 409 471 32,000  Level FlightAware ADS-B
Tue 09:08:43 PM -25.7280 -47.7390 200° South 409 471 32,000  Level FlightAware ADS-B
Tue 09:09:15 PM -25.7890 -47.7640 200° South 408 470 32,000  Level FlightAware ADS-B
Tue 09:09:57 PM -25.8560 -47.7910 200° South 407 468 32,000  Level FlightAware ADS-B
Tue 09:10:28 PM -25.9170 -47.8160 200° South 408 470 32,000  Level FlightAware ADS-B
Tue 09:11:01 PM -25.9700 -47.8380 200° South 409 471 32,000  Level FlightAware ADS-B
Tue 09:11:39 PM -26.0550 -47.8720 200° South 410 472 32,000  Level FlightAware ADS-B
Tue 09:12:14 PM -26.1160 -47.8970 200° South 411 473 32,000  Level FlightAware ADS-B
Tue 09:12:49 PM -26.1800 -47.9230 200° South 412 474 32,000 -429 Level FlightAware ADS-B
Tue 09:13:24 PM -26.2430 -47.9490 200° South 412 474 31,500 -1,714 Descending FlightAware ADS-B
Tue 09:13:59 PM -26.3060 -47.9750 200° South 414 476 30,000 -2,486 Descending FlightAware ADS-B
Tue 09:14:34 PM -26.3690 -48.0000 200° South 411 473 28,600 -2,282 Descending FlightAware ADS-B
Tue 09:15:10 PM -26.4320 -48.0260 200° South 406 467 27,300 -2,197 Descending FlightAware ADS-B
Tue 09:15:45 PM -26.4920 -48.0510 200° South 403 464 26,000 -2,261 Descending FlightAware ADS-B
Tue 09:16:19 PM -26.5540 -48.0760 200° South 399 459 24,700 -2,261 Descending FlightAware ADS-B
Tue 09:16:54 PM -26.6150 -48.1010 200° South 396 456 23,400 -2,143 Descending FlightAware ADS-B
Tue 09:17:29 PM -26.6740 -48.1250 200° South 392 451 22,200 -2,028 Descending FlightAware ADS-B
Tue 09:18:05 PM -26.7340 -48.1500 200° South 388 447 21,000 -2,057 Descending FlightAware ADS-B
Tue 09:18:39 PM -26.7910 -48.1740 201° Southwest 382 440 19,800 -2,156 Descending FlightAware ADS-B
Tue 09:19:09 PM -26.8430 -48.1920 197° South 378 435 18,700 -2,215 Descending FlightAware ADS-B
Tue 09:19:44 PM -26.9020 -48.1980 185° South 371 427 17,400 -2,057 Descending FlightAware ADS-B
Tue 09:20:19 PM -26.9570 -48.2040 186° South 359 413 16,300 -1,760 Descending FlightAware ADS-B
Tue 09:20:59 PM -27.0270 -48.2110 185° South 347 399 15,200 -1,680 Descending FlightAware ADS-B
Tue 09:21:34 PM -27.0840 -48.2170 185° South 339 390 14,200 -1,754 Descending FlightAware ADS-B
Tue 09:22:04 PM -27.1310 -48.2220 185° South 339 390 13,300 -1,690 Descending FlightAware ADS-B
Tue 09:22:45 PM -27.1910 -48.2280 185° South 341 392 12,200 -1,680 Descending FlightAware ADS-B
Tue 09:23:19 PM -27.2450 -48.2340 186° South 340 391 11,200 -1,417 Descending FlightAware ADS-B
Tue 09:23:57 PM -27.2990 -48.2400 186° South 334 384 10,500 -1,059 Descending FlightAware ADS-B
Tue 09:24:27 PM -27.3480 -48.2450 185° South 314 361 10,000 -1,000 Descending FlightAware ADS-B
Tue 09:24:51 PM -27.3790 -48.2500 188° South 308 354 9,600 -1,400 Descending FlightAware ADS-B
Tue 09:24:57 PM -27.3910 -48.2550 200° South 307 353 9,300 -2,000 Descending FlightAware ADS-B
Tue 09:25:27 PM -27.4300 -48.2720 201° Southwest 308 354 8,400 -1,625 Descending FlightAware ADS-B
Tue 09:25:45 PM -27.4540 -48.2820 200° South 302 348 8,000 -1,500 Descending FlightAware ADS-B
Tue 09:26:03 PM -27.4770 -48.2930 203° Southwest 291 335 7,500 -1,833 Descending FlightAware ADS-B
Tue 09:26:21 PM -27.4980 -48.3020 201° Southwest 285 328 6,900 -2,600 Descending FlightAware ADS-B
Tue 09:26:33 PM -27.5140 -48.3090 201° Southwest 287 330 6,200 -2,833 Descending FlightAware ADS-B
Tue 09:26:57 PM -27.5420 -48.3220 202° Southwest 291 335 5,200 -2,714 Descending FlightAware ADS-B
Tue 09:27:15 PM -27.5670 -48.3330 201° Southwest 294 338 4,300 -2,500 Descending FlightAware ADS-B
Tue 09:27:45 PM -27.6020 -48.3490 202° Southwest 286 329 3,200 -1,600 Descending FlightAware ADS-B
Tue 09:28:15 PM -27.6360 -48.3640 201° Southwest 265 305 2,700 -1,256 Descending FlightAware ADS-B
Tue 09:28:28 PM -27.6550 -48.3720 200° South 251 289 2,300 -1,200 Descending FlightAware ADS-B
Tue 09:28:50 PM -27.6780 -48.3820 201° Southwest 235 270 2,000 -480 Descending FlightAware ADS-B
Tue 09:29:18 PM -27.7030 -48.3950 205° Southwest 203 234 1,900 -500 Descending FlightAware ADS-B
Tue 09:29:26 PM -27.7080 -48.4020 231° Southwest 194 223 1,700 -900 Descending FlightAware ADS-B
Tue 09:29:38 PM -27.7120 -48.4130 248° West 185 213 1,600 -643 Descending FlightAware ADS-B
Tue 09:29:54 PM -27.7150 -48.4280 257° West 168 193 1,400 -500 Descending FlightAware ADS-B
Tue 09:30:14 PM -27.7180 -48.4430 257° West 158 182 1,300 -231 Descending FlightAware ADS-B
Tue 09:30:20 PM -27.7190 -48.4490 259° West 152 175 1,300 -353 Level FlightAware ADS-B
Tue 09:30:48 PM -27.7110 -48.4660 298° West 133 153 1,100 -500 Descending FlightAware ADS-B
Tue 09:31:08 PM -27.7050 -48.4770 302° West 131 151 900 -682 Descending FlightAware ADS-B
Tue 09:31:32 PM -27.6970 -48.4920 301° West 128 147 600 -682 Descending FlightAware ADS-B
Tue 09:31:52 PM -27.6910 -48.5030 302° West 126 145 400 -585 Descending FlightAware ADS-B
Tue 09:32:13 PM -27.6850 -48.5150 299° West 128 147 200 -571 Descending FlightAware ADS-B
Tue 09:32:32 PM -27.6790 -48.5260 302° West 136 157 -632 Descending FlightAware ADS-B
Tue 09:32:48 PM -27.6740 -48.5360 299° West 137 158  Level FlightAware ADS-B

Login

Don't have an account? Register now (free) for customized features, flight alerts, and more!